Time;durP1;ratioP1;P1;durP2;ratioP2;P2;SDS_P1;SDS_P2;PMS_P1;PMS_P2;Temp;Humidity;BMP_temperature;BMP_pressure;BME280_temperature;BME280_humidity;BME280_pressure;Samples;Min_cycle;Max_cycle;Signal;HPM_P1;HPM_P2
2024/01/06 00:02:25;;;;;;;2.97;2.67;;;;;;;;;;5042881;28;20025;-79
2024/01/06 00:04:51;;;;;;;3.70;2.90;;;;;;;;;;5040829;28;20025;-78
2024/01/06 00:07:17;;;;;;;2.88;2.60;;;;;;;;;;5037086;28;20060;-77
2024/01/06 00:09:43;;;;;;;4.20;2.97;;;;;;;;;;5035916;28;20473;-79
2024/01/06 00:12:10;;;;;;;2.90;2.70;;;;;;;;;;5033889;28;20018;-79
2024/01/06 00:14:36;;;;;;;3.42;2.72;;;;;;;;;;5040498;28;20492;-77
2024/01/06 00:17:02;;;;;;;5.15;2.95;;;;;;;;;;5032894;28;20121;-78
2024/01/06 00:19:28;;;;;;;3.83;2.95;;;;;;;;;;5035625;28;20025;-77
2024/01/06 00:21:55;;;;;;;5.28;3.00;;;;;;;;;;5040157;28;20033;-78
2024/01/06 00:24:21;;;;;;;4.95;4.07;;;;;;;;;;5040081;28;20029;-78
2024/01/06 00:27:02;;;;;;;4.57;3.42;;;;;;;;;;5036249;28;20033;-77
2024/01/06 00:29:32;;;;;;;6.15;4.25;;;;;;;;;;5043470;28;20022;-78
2024/01/06 00:31:58;;;;;;;5.60;4.35;;;;;;;;;;5027229;28;20113;-78
2024/01/06 00:34:24;;;;;;;5.72;4.65;;;;;;;;;;5023003;28;20021;-79
2024/01/06 00:36:50;;;;;;;6.38;4.43;;;;;;;;;;5036056;28;20025;-76
2024/01/06 00:39:16;;;;;;;6.65;4.82;;;;;;;;;;5021142;28;20013;-77
2024/01/06 00:41:42;;;;;;;6.57;5.15;;;;;;;;;;5025648;28;20026;-77
2024/01/06 00:44:08;;;;;;;6.95;4.90;;;;;;;;;;5031143;28;20064;-77
2024/01/06 00:46:34;;;;;;;6.97;5.20;;;;;;;;;;5032030;28;20021;-77
2024/01/06 00:49:01;;;;;;;5.88;4.80;;;;;;;;;;5032157;28;20022;-77
2024/01/06 00:51:28;;;;;;;5.93;4.55;;;;;;;;;;5031340;28;20041;-79
2024/01/06 00:53:54;;;;;;;6.88;4.95;;;;;;;;;;5033387;28;20079;-78
2024/01/06 00:56:20;;;;;;;7.03;5.45;;;;;;;;;;5028105;28;20036;-79
2024/01/06 00:58:46;;;;;;;7.93;5.50;;;;;;;;;;5027019;28;20026;-77
2024/01/06 01:01:12;;;;;;;7.28;5.20;;;;;;;;;;5028836;28;20119;-78
2024/01/06 01:03:38;;;;;;;6.55;5.20;;;;;;;;;;5031537;28;20029;-78
2024/01/06 01:06:04;;;;;;;7.60;5.63;;;;;;;;;;5034189;28;20018;-78
2024/01/06 01:08:30;;;;;;;6.10;4.90;;;;;;;;;;5031282;28;20060;-76
2024/01/06 01:10:57;;;;;;;6.45;4.60;;;;;;;;;;5027125;28;20451;-78
2024/01/06 01:13:23;;;;;;;6.38;4.13;;;;;;;;;;5029465;28;20026;-76
2024/01/06 01:15:49;;;;;;;6.18;3.70;;;;;;;;;;5031034;28;20032;-78
2024/01/06 01:18:15;;;;;;;4.40;3.50;;;;;;;;;;5029670;28;20026;-79
2024/01/06 01:20:41;;;;;;;4.05;3.03;;;;;;;;;;5034043;28;20503;-78
2024/01/06 01:23:08;;;;;;;2.65;2.25;;;;;;;;;;5030310;28;20105;-77
2024/01/06 01:25:34;;;;;;;3.08;2.00;;;;;;;;;;5028136;28;20472;-77
2024/01/06 01:28:00;;;;;;;2.00;1.70;;;;;;;;;;5030007;28;20021;-79
2024/01/06 01:30:26;;;;;;;3.55;2.25;;;;;;;;;;5033114;28;20692;-76
2024/01/06 01:32:52;;;;;;;2.42;1.70;;;;;;;;;;5034852;28;20017;-77
2024/01/06 01:35:18;;;;;;;2.13;1.77;;;;;;;;;;5034476;28;20511;-78
2024/01/06 01:37:44;;;;;;;1.80;1.60;;;;;;;;;;5034060;28;20025;-78
2024/01/06 01:40:11;;;;;;;1.65;1.50;;;;;;;;;;5032676;28;20462;-77
2024/01/06 01:42:37;;;;;;;1.55;1.45;;;;;;;;;;5031041;28;20025;-77
2024/01/06 01:45:03;;;;;;;1.45;1.20;;;;;;;;;;5031501;28;20029;-78
2024/01/06 01:47:30;;;;;;;1.45;1.30;;;;;;;;;;5030463;28;20047;-78
2024/01/06 01:49:56;;;;;;;1.40;1.27;;;;;;;;;;5033138;28;20014;-77
2024/01/06 01:52:22;;;;;;;1.17;1.08;;;;;;;;;;5033763;28;20468;-76
2024/01/06 01:54:48;;;;;;;1.15;1.05;;;;;;;;;;5034544;28;20499;-78
2024/01/06 01:57:15;;;;;;;1.55;1.10;;;;;;;;;;5032887;28;20571;-78
2024/01/06 01:59:42;;;;;;;1.98;1.00;;;;;;;;;;5032821;28;20026;-78
2024/01/06 02:02:09;;;;;;;1.23;1.13;;;;;;;;;;5035784;28;20037;-77
2024/01/06 02:04:35;;;;;;;0.68;0.63;;;;;;;;;;5037998;28;20048;-78
2024/01/06 02:07:01;;;;;;;0.93;0.85;;;;;;;;;;5033886;28;20013;-79
2024/01/06 02:09:29;;;;;;;0.80;0.80;;;;;;;;;;5033335;28;20029;-78
2024/01/06 02:11:57;;;;;;;1.48;0.75;;;;;;;;;;5032755;28;20021;-78
2024/01/06 02:14:23;;;;;;;0.70;0.70;;;;;;;;;;5034430;28;20025;-78
2024/01/06 02:16:49;;;;;;;0.68;0.60;;;;;;;;;;5033361;28;20029;-77
2024/01/06 02:19:17;;;;;;;0.47;0.47;;;;;;;;;;5031847;28;20025;-77
2024/01/06 02:21:44;;;;;;;0.22;0.22;;;;;;;;;;5031289;28;20033;-77
2024/01/06 02:24:10;;;;;;;0.43;0.43;;;;;;;;;;5034007;28;20021;-77
2024/01/06 02:26:36;;;;;;;0.73;0.43;;;;;;;;;;5032506;28;20058;-77
2024/01/06 02:29:03;;;;;;;0.70;0.50;;;;;;;;;;5031745;28;20014;-77
2024/01/06 02:31:29;;;;;;;0.30;0.30;;;;;;;;;;5033833;28;20022;-79
2024/01/06 02:33:55;;;;;;;0.30;0.30;;;;;;;;;;5051697;28;20014;-79
2024/01/06 02:36:21;;;;;;;0.47;0.47;;;;;;;;;;5036337;28;20072;-78
2024/01/06 02:38:47;;;;;;;0.38;0.38;;;;;;;;;;5036221;28;20032;-77
2024/01/06 02:41:13;;;;;;;0.20;0.20;;;;;;;;;;5031429;28;20033;-77
2024/01/06 02:43:39;;;;;;;0.30;0.30;;;;;;;;;;5037841;28;20037;-76
2024/01/06 02:46:05;;;;;;;0.38;0.38;;;;;;;;;;5032417;28;20013;-78
2024/01/06 02:48:31;;;;;;;0.50;0.50;;;;;;;;;;5031727;28;20113;-77
2024/01/06 02:50:57;;;;;;;0.20;0.20;;;;;;;;;;5033490;28;20022;-78
2024/01/06 02:53:23;;;;;;;0.40;0.40;;;;;;;;;;5034828;28;20025;-77
2024/01/06 02:55:49;;;;;;;0.20;0.20;;;;;;;;;;5035572;28;20048;-78
2024/01/06 02:58:15;;;;;;;0.35;0.35;;;;;;;;;;5033428;28;20033;-78
2024/01/06 03:00:41;;;;;;;0.20;0.20;;;;;;;;;;5029590;28;20025;-78
2024/01/06 03:03:07;;;;;;;0.30;0.30;;;;;;;;;;5019797;28;20030;-77
2024/01/06 03:05:34;;;;;;;0.20;0.10;;;;;;;;;;5038090;28;20072;-77
2024/01/06 03:08:00;;;;;;;0.20;0.20;;;;;;;;;;5025929;28;20026;-76
2024/01/06 03:10:26;;;;;;;0.30;0.30;;;;;;;;;;5022276;28;20094;-77
2024/01/06 03:12:53;;;;;;;0.30;0.30;;;;;;;;;;5046519;28;20108;-77
2024/01/06 03:15:19;;;;;;;0.32;0.32;;;;;;;;;;5038347;28;20487;-77
2024/01/06 03:17:45;;;;;;;0.13;0.13;;;;;;;;;;5031451;28;20065;-79
2024/01/06 03:20:11;;;;;;;0.30;0.30;;;;;;;;;;5023014;28;20040;-79
2024/01/06 03:22:38;;;;;;;0.20;0.20;;;;;;;;;;5032952;28;20511;-79
2024/01/06 03:25:06;;;;;;;0.17;0.17;;;;;;;;;;5031856;28;20071;-78
2024/01/06 03:27:32;;;;;;;0.10;0.10;;;;;;;;;;5032467;28;20013;-77
2024/01/06 03:29:58;;;;;;;0.17;0.10;;;;;;;;;;5040929;28;20029;-77
2024/01/06 03:32:24;;;;;;;0.20;0.20;;;;;;;;;;5041362;28;20135;-77
2024/01/06 03:34:50;;;;;;;0.40;0.35;;;;;;;;;;5035310;28;20113;-76
2024/01/06 03:37:16;;;;;;;0.40;0.40;;;;;;;;;;5029908;28;20194;-77
2024/01/06 03:39:42;;;;;;;0.40;0.40;;;;;;;;;;5027728;28;20021;-77
2024/01/06 03:42:08;;;;;;;0.40;0.28;;;;;;;;;;5026390;28;20037;-77
2024/01/06 03:44:34;;;;;;;0.43;0.40;;;;;;;;;;5029332;28;20021;-78
2024/01/06 03:47:01;;;;;;;0.93;0.80;;;;;;;;;;5027829;28;20022;-77
2024/01/06 03:49:27;;;;;;;3.00;1.33;;;;;;;;;;5030180;28;20018;-78
2024/01/06 03:51:53;;;;;;;1.38;1.20;;;;;;;;;;5029411;28;20018;-77
2024/01/06 03:54:19;;;;;;;1.38;1.27;;;;;;;;;;5026510;28;20044;-77
2024/01/06 03:56:45;;;;;;;1.15;1.05;;;;;;;;;;5038082;28;20033;-77
2024/01/06 03:59:11;;;;;;;1.55;1.33;;;;;;;;;;5017268;28;20033;-78
2024/01/06 04:01:38;;;;;;;1.50;1.40;;;;;;;;;;5028497;28;20029;-78
2024/01/06 04:04:04;;;;;;;1.67;1.25;;;;;;;;;;5017512;28;20026;-77
2024/01/06 04:06:31;;;;;;;1.58;1.38;;;;;;;;;;5038021;28;20331;-77
2024/01/06 04:08:58;;;;;;;1.85;1.38;;;;;;;;;;5020933;28;20025;-77
2024/01/06 04:11:24;;;;;;;1.60;1.20;;;;;;;;;;5019760;28;20452;-78
2024/01/06 04:13:50;;;;;;;1.00;1.00;;;;;;;;;;5012812;28;20338;-77
2024/01/06 04:16:16;;;;;;;1.48;1.27;;;;;;;;;;5012947;28;20022;-77
2024/01/06 04:18:42;;;;;;;1.00;0.93;;;;;;;;;;5015405;28;20489;-77
2024/01/06 04:21:08;;;;;;;1.15;0.98;;;;;;;;;;5025189;28;20033;-78
2024/01/06 04:23:35;;;;;;;1.10;0.82;;;;;;;;;;5023477;28;20054;-77
2024/01/06 04:26:01;;;;;;;1.10;1.00;;;;;;;;;;5030094;28;20032;-80
2024/01/06 04:28:27;;;;;;;1.48;0.63;;;;;;;;;;5039914;28;20446;-77
2024/01/06 04:30:53;;;;;;;1.08;0.98;;;;;;;;;;5026269;28;20365;-77
2024/01/06 04:33:20;;;;;;;0.85;0.77;;;;;;;;;;5036173;28;20476;-77
2024/01/06 04:35:46;;;;;;;1.02;0.75;;;;;;;;;;5026568;28;20029;-77
2024/01/06 04:38:12;;;;;;;0.85;0.85;;;;;;;;;;5023204;28;20022;-78
2024/01/06 04:40:38;;;;;;;0.50;0.50;;;;;;;;;;5028754;28;20048;-78
2024/01/06 04:43:04;;;;;;;0.50;0.50;;;;;;;;;;5029438;28;20030;-77
2024/01/06 04:45:30;;;;;;;0.32;0.32;;;;;;;;;;5016337;28;20025;-77
2024/01/06 04:47:56;;;;;;;0.40;0.40;;;;;;;;;;5032819;28;20030;-78
2024/01/06 04:50:23;;;;;;;0.40;0.30;;;;;;;;;;5030828;28;20025;-77
2024/01/06 04:52:49;;;;;;;0.30;0.30;;;;;;;;;;5024534;28;20480;-81
2024/01/06 04:55:15;;;;;;;1.35;0.50;;;;;;;;;;5025938;28;20063;-79
2024/01/06 04:57:41;;;;;;;0.25;0.25;;;;;;;;;;5033275;28;20066;-80
2024/01/06 05:00:07;;;;;;;0.50;0.30;;;;;;;;;;5039868;28;20557;-79
2024/01/06 05:02:33;;;;;;;0.20;0.20;;;;;;;;;;5037666;28;20029;-79
2024/01/06 05:04:59;;;;;;;0.20;0.20;;;;;;;;;;5038056;28;20033;-79
2024/01/06 05:07:25;;;;;;;0.20;0.20;;;;;;;;;;5044174;28;20048;-78
2024/01/06 05:09:52;;;;;;;0.08;0.05;;;;;;;;;;5034188;28;20030;-79
2024/01/06 05:12:18;;;;;;;0.13;0.13;;;;;;;;;;5032009;28;20085;-80
2024/01/06 05:14:44;;;;;;;0.00;0.00;;;;;;;;;;5038532;28;20044;-78
2024/01/06 05:17:10;;;;;;;0.05;0.05;;;;;;;;;;5041506;28;20029;-79
2024/01/06 05:19:36;;;;;;;0.00;0.00;;;;;;;;;;5030437;28;20034;-80
2024/01/06 05:22:02;;;;;;;0.00;0.00;;;;;;;;;;5040098;28;20196;-80
2024/01/06 05:24:28;;;;;;;0.10;0.10;;;;;;;;;;5045601;28;20032;-78
2024/01/06 05:26:54;;;;;;;0.08;0.08;;;;;;;;;;5027959;28;20032;-78
2024/01/06 05:29:21;;;;;;;0.20;0.20;;;;;;;;;;5027336;28;20029;-76
2024/01/06 05:31:48;;;;;;;0.10;0.10;;;;;;;;;;5033537;28;20053;-77
2024/01/06 05:34:15;;;;;;;0.10;0.10;;;;;;;;;;5029949;28;20030;-78
2024/01/06 05:36:41;;;;;;;0.65;0.20;;;;;;;;;;5035745;28;20018;-77
2024/01/06 05:39:07;;;;;;;0.10;0.10;;;;;;;;;;5035147;28;20021;-77
2024/01/06 05:41:40;;;;;;;0.30;0.28;;;;;;;;;;5022752;28;20073;-77
2024/01/06 05:44:07;;;;;;;0.10;0.10;;;;;;;;;;5031018;28;20053;-79
2024/01/06 05:46:33;;;;;;;0.10;0.10;;;;;;;;;;5024782;28;20507;-78
2024/01/06 05:48:59;;;;;;;0.10;0.10;;;;;;;;;;5023666;28;20037;-79
2024/01/06 05:51:26;;;;;;;0.10;0.10;;;;;;;;;;5035465;28;20357;-80
2024/01/06 05:53:52;;;;;;;0.13;0.10;;;;;;;;;;5038454;28;20065;-79
2024/01/06 05:56:28;;;;;;;0.10;0.10;;;;;;;;;;5047814;28;20025;-81
2024/01/06 05:58:54;;;;;;;0.10;0.10;;;;;;;;;;5048898;28;20052;-78
2024/01/06 06:01:21;;;;;;;0.40;0.10;;;;;;;;;;5054049;28;20048;-78
2024/01/06 06:03:48;;;;;;;0.20;0.20;;;;;;;;;;5039633;28;20045;-78
2024/01/06 06:06:14;;;;;;;0.75;0.30;;;;;;;;;;5042575;28;20037;-79
2024/01/06 06:08:42;;;;;;;0.70;0.40;;;;;;;;;;5035218;28;20046;-78
2024/01/06 06:11:10;;;;;;;0.70;0.50;;;;;;;;;;5037631;28;20034;-78
2024/01/06 06:13:43;;;;;;;2.00;1.33;;;;;;;;;;5056368;28;20109;-79
2024/01/06 06:16:12;;;;;;;1.30;1.15;;;;;;;;;;5042095;28;20028;-79
2024/01/06 06:18:39;;;;;;;2.13;1.38;;;;;;;;;;5049548;28;20033;-79
2024/01/06 06:21:05;;;;;;;1.45;1.10;;;;;;;;;;5050028;28;20032;-78
2024/01/06 06:23:32;;;;;;;1.50;1.05;;;;;;;;;;5063469;28;20029;-77
2024/01/06 06:25:59;;;;;;;2.55;1.17;;;;;;;;;;5061912;28;20047;-75
2024/01/06 06:28:25;;;;;;;2.35;0.90;;;;;;;;;;5054456;28;20127;-77
2024/01/06 06:30:51;;;;;;;4.22;1.23;;;;;;;;;;5044111;28;20036;-77
2024/01/06 06:33:17;;;;;;;1.45;1.00;;;;;;;;;;5041671;28;20464;-77
2024/01/06 06:35:43;;;;;;;1.05;0.80;;;;;;;;;;5036588;28;20029;-76
2024/01/06 06:38:09;;;;;;;2.85;1.17;;;;;;;;;;5021879;28;20102;-76
2024/01/06 06:40:35;;;;;;;1.20;1.00;;;;;;;;;;5034760;28;20014;-76
2024/01/06 06:43:04;;;;;;;1.67;1.08;;;;;;;;;;5028085;28;20025;-76
2024/01/06 06:45:31;;;;;;;2.08;0.90;;;;;;;;;;5025103;28;20038;-77
2024/01/06 06:47:57;;;;;;;2.05;1.20;;;;;;;;;;5034489;28;20029;-77
2024/01/06 06:50:24;;;;;;;1.05;0.80;;;;;;;;;;5032800;28;20112;-77
2024/01/06 06:52:50;;;;;;;2.47;1.25;;;;;;;;;;5029280;28;20061;-78
2024/01/06 06:55:16;;;;;;;1.77;1.30;;;;;;;;;;5022856;28;20022;-78
2024/01/06 06:57:42;;;;;;;1.25;1.00;;;;;;;;;;5025764;28;20029;-76
2024/01/06 07:00:09;;;;;;;1.50;1.02;;;;;;;;;;5032411;28;20398;-78
2024/01/06 07:02:35;;;;;;;1.67;1.10;;;;;;;;;;5031170;28;20094;-78
2024/01/06 07:05:01;;;;;;;1.90;1.50;;;;;;;;;;5030761;28;20037;-79
2024/01/06 07:07:27;;;;;;;1.38;1.00;;;;;;;;;;5033926;28;20022;-79
2024/01/06 07:09:54;;;;;;;2.10;0.85;;;;;;;;;;5035317;28;20112;-78
2024/01/06 07:12:20;;;;;;;2.70;1.15;;;;;;;;;;5030379;28;20021;-76
2024/01/06 07:14:46;;;;;;;2.22;1.17;;;;;;;;;;5034001;28;20075;-77
2024/01/06 07:17:12;;;;;;;1.70;0.90;;;;;;;;;;5022919;28;20047;-77
2024/01/06 07:19:38;;;;;;;1.17;1.08;;;;;;;;;;5032041;28;20025;-76
2024/01/06 07:22:05;;;;;;;1.52;0.90;;;;;;;;;;5033338;28;20031;-76
2024/01/06 07:24:31;;;;;;;1.38;0.80;;;;;;;;;;5030077;28;20383;-77
2024/01/06 07:26:57;;;;;;;1.35;0.95;;;;;;;;;;5031700;28;20029;-77
2024/01/06 07:29:23;;;;;;;1.40;0.80;;;;;;;;;;5023271;28;20041;-77
2024/01/06 07:31:49;;;;;;;1.38;0.90;;;;;;;;;;5022726;28;20036;-77
2024/01/06 07:34:15;;;;;;;1.70;0.90;;;;;;;;;;5027470;28;20075;-76
2024/01/06 07:36:42;;;;;;;2.20;1.17;;;;;;;;;;5025933;28;20036;-77
2024/01/06 07:39:08;;;;;;;1.88;1.00;;;;;;;;;;5035512;28;20055;-76
2024/01/06 07:41:34;;;;;;;1.52;0.90;;;;;;;;;;5020391;28;21363;-77
2024/01/06 07:44:02;;;;;;;2.75;1.52;;;;;;;;;;5032773;28;20084;-76
2024/01/06 07:46:28;;;;;;;1.35;1.20;;;;;;;;;;5029291;28;20391;-76
2024/01/06 07:48:55;;;;;;;1.17;1.08;;;;;;;;;;5026070;28;20026;-76
2024/01/06 07:51:21;;;;;;;3.70;1.98;;;;;;;;;;5032561;28;20021;-77
2024/01/06 07:53:47;;;;;;;1.50;1.40;;;;;;;;;;5025164;28;20416;-76
2024/01/06 07:56:13;;;;;;;2.72;1.35;;;;;;;;;;5024337;28;20087;-76
2024/01/06 07:58:39;;;;;;;4.15;1.70;;;;;;;;;;5015748;28;20025;-78
2024/01/06 08:01:05;;;;;;;3.17;1.27;;;;;;;;;;5025678;28;20030;-78
2024/01/06 08:03:31;;;;;;;1.45;1.35;;;;;;;;;;5033828;28;20075;-77
2024/01/06 08:05:58;;;;;;;3.47;1.45;;;;;;;;;;5039861;28;20066;-76
2024/01/06 08:08:24;;;;;;;3.63;1.50;;;;;;;;;;5040013;28;20027;-76
2024/01/06 08:10:50;;;;;;;1.90;1.70;;;;;;;;;;5032197;28;20366;-76
2024/01/06 08:13:16;;;;;;;3.85;1.23;;;;;;;;;;5032137;28;20022;-77
2024/01/06 08:15:42;;;;;;;2.10;1.35;;;;;;;;;;5040368;28;20029;-76
2024/01/06 08:18:08;;;;;;;1.50;1.00;;;;;;;;;;5032766;28;20025;-76
2024/01/06 08:20:37;;;;;;;1.60;1.35;;;;;;;;;;5056156;28;20027;-76
2024/01/06 08:23:03;;;;;;;1.15;1.10;;;;;;;;;;5046510;28;20064;-76
2024/01/06 08:25:29;;;;;;;1.08;1.08;;;;;;;;;;5035788;28;20465;-76
2024/01/06 08:27:55;;;;;;;1.35;1.10;;;;;;;;;;5032457;28;20021;-75
2024/01/06 08:30:23;;;;;;;0.70;0.70;;;;;;;;;;5039990;28;20026;-76
2024/01/06 08:32:59;;;;;;;1.00;0.95;;;;;;;;;;5036835;28;20022;-76
2024/01/06 08:35:25;;;;;;;1.17;1.08;;;;;;;;;;5034224;28;20039;-75
2024/01/06 08:37:51;;;;;;;2.60;1.25;;;;;;;;;;5035921;28;20383;-74
2024/01/06 08:40:20;;;;;;;1.20;1.10;;;;;;;;;;5040204;28;20032;-76
2024/01/06 08:42:46;;;;;;;3.42;1.58;;;;;;;;;;5053223;28;20037;-75
2024/01/06 08:45:22;;;;;;;1.88;1.00;;;;;;;;;;5041568;28;20025;-76
2024/01/06 08:47:48;;;;;;;4.05;1.23;;;;;;;;;;5030804;28;20487;-75
2024/01/06 08:50:14;;;;;;;2.58;1.20;;;;;;;;;;5052361;28;20108;-75
2024/01/06 08:52:40;;;;;;;4.38;1.25;;;;;;;;;;5037429;28;20017;-76
2024/01/06 08:55:07;;;;;;;1.20;1.10;;;;;;;;;;5041897;28;20029;-75
2024/01/06 08:57:33;;;;;;;6.28;1.33;;;;;;;;;;5037886;28;20040;-76
2024/01/06 08:59:59;;;;;;;3.20;1.15;;;;;;;;;;5051017;28;20092;-76
2024/01/06 09:02:25;;;;;;;2.38;1.15;;;;;;;;;;5050342;28;20064;-77
2024/01/06 09:04:51;;;;;;;5.68;0.82;;;;;;;;;;5039302;28;20029;-78
2024/01/06 09:07:17;;;;;;;1.05;0.70;;;;;;;;;;5037995;28;20025;-76
2024/01/06 09:09:44;;;;;;;1.83;0.82;;;;;;;;;;5043983;28;20033;-76
2024/01/06 09:12:11;;;;;;;0.98;0.57;;;;;;;;;;5035947;28;20041;-76
2024/01/06 09:14:37;;;;;;;1.83;0.73;;;;;;;;;;5035046;28;20038;-77
2024/01/06 09:17:04;;;;;;;1.52;0.70;;;;;;;;;;5035973;28;20029;-76
2024/01/06 09:19:30;;;;;;;1.90;0.57;;;;;;;;;;5046045;28;20025;-76
2024/01/06 09:21:56;;;;;;;1.48;0.73;;;;;;;;;;5052277;28;20060;-76
2024/01/06 09:24:23;;;;;;;0.98;0.80;;;;;;;;;;5046462;28;20025;-75
2024/01/06 09:26:52;;;;;;;1.70;0.88;;;;;;;;;;5035396;28;20025;-76
2024/01/06 09:29:18;;;;;;;0.80;0.50;;;;;;;;;;5035909;28;20423;-76
2024/01/06 09:31:44;;;;;;;2.03;0.90;;;;;;;;;;5044849;28;20021;-76
2024/01/06 09:34:12;;;;;;;2.58;0.70;;;;;;;;;;5052465;28;20407;-75
2024/01/06 09:36:38;;;;;;;1.38;0.70;;;;;;;;;;5048664;28;20030;-79
2024/01/06 09:39:04;;;;;;;0.70;0.70;;;;;;;;;;5048081;28;20035;-80
2024/01/06 09:41:30;;;;;;;1.00;0.68;;;;;;;;;;5060149;28;20032;-78
2024/01/06 09:43:57;;;;;;;1.10;0.77;;;;;;;;;;5060482;28;20033;-79
2024/01/06 09:46:24;;;;;;;0.73;0.55;;;;;;;;;;5054132;28;20053;-78
2024/01/06 09:48:52;;;;;;;3.80;0.98;;;;;;;;;;5067471;28;20055;-81
2024/01/06 09:51:20;;;;;;;2.53;1.10;;;;;;;;;;5069687;28;20059;-79
2024/01/06 09:53:49;;;;;;;5.80;1.00;;;;;;;;;;5070424;28;20028;-79
2024/01/06 09:56:16;;;;;;;1.95;0.68;;;;;;;;;;5055536;28;20032;-79
2024/01/06 09:58:42;;;;;;;1.67;0.80;;;;;;;;;;5061431;28;20189;-78
2024/01/06 10:01:09;;;;;;;2.10;0.90;;;;;;;;;;5052698;28;20017;-79
2024/01/06 10:03:38;;;;;;;1.88;0.77;;;;;;;;;;5060350;28;20025;-78
2024/01/06 10:06:05;;;;;;;1.80;0.52;;;;;;;;;;5048531;28;20018;-78
2024/01/06 10:08:35;;;;;;;1.30;0.70;;;;;;;;;;5059193;28;20057;-78
2024/01/06 10:11:01;;;;;;;2.85;1.20;;;;;;;;;;5062132;28;20029;-79
2024/01/06 10:13:28;;;;;;;2.05;1.25;;;;;;;;;;5061533;28;20028;-79
2024/01/06 10:15:55;;;;;;;2.10;0.95;;;;;;;;;;5061679;28;20047;-79
2024/01/06 10:18:21;;;;;;;1.77;1.10;;;;;;;;;;5059260;28;20043;-81
2024/01/06 10:20:48;;;;;;;1.65;0.77;;;;;;;;;;5057692;28;20089;-81
2024/01/06 10:23:14;;;;;;;2.33;1.13;;;;;;;;;;5055044;28;20002;-79
2024/01/06 10:25:42;;;;;;;1.15;1.05;;;;;;;;;;5054707;28;20029;-79
2024/01/06 10:28:12;;;;;;;1.48;1.10;;;;;;;;;;5058792;28;20013;-78
2024/01/06 10:30:39;;;;;;;3.20;1.27;;;;;;;;;;5055355;28;20021;-79
2024/01/06 10:33:09;;;;;;;1.10;0.93;;;;;;;;;;5048174;28;20032;-79
2024/01/06 10:35:36;;;;;;;1.10;1.00;;;;;;;;;;5044866;28;20480;-79
2024/01/06 10:38:03;;;;;;;0.98;0.68;;;;;;;;;;5046659;28;20063;-80
2024/01/06 10:40:29;;;;;;;0.80;0.75;;;;;;;;;;5032594;28;20033;-78
2024/01/06 10:42:59;;;;;;;2.58;1.20;;;;;;;;;;5033759;28;20036;-80
2024/01/06 10:45:25;;;;;;;1.85;1.00;;;;;;;;;;5054201;28;20033;-79
2024/01/06 10:47:52;;;;;;;2.35;1.15;;;;;;;;;;5035160;28;20021;-78
2024/01/06 10:50:19;;;;;;;1.65;1.20;;;;;;;;;;5034795;28;20369;-78
2024/01/06 10:52:46;;;;;;;3.20;1.50;;;;;;;;;;5041803;28;20035;-78
2024/01/06 10:55:16;;;;;;;2.60;1.02;;;;;;;;;;5042932;28;20029;-77
2024/01/06 10:57:44;;;;;;;1.67;1.17;;;;;;;;;;5051275;28;20024;-78
2024/01/06 11:00:10;;;;;;;2.70;1.30;;;;;;;;;;5045365;28;20491;-76
2024/01/06 11:02:37;;;;;;;1.77;1.25;;;;;;;;;;5052891;28;20032;-77
2024/01/06 11:05:06;;;;;;;1.70;1.27;;;;;;;;;;5034177;28;20032;-77
2024/01/06 11:07:32;;;;;;;3.92;1.20;;;;;;;;;;5042034;28;20096;-77
2024/01/06 11:10:02;;;;;;;3.20;1.63;;;;;;;;;;5034738;28;20510;-78
2024/01/06 11:12:28;;;;;;;3.67;2.00;;;;;;;;;;5049754;28;20115;-78
2024/01/06 11:14:55;;;;;;;3.70;1.50;;;;;;;;;;5054574;28;20028;-78
2024/01/06 11:17:39;;;;;;;2.53;1.65;;;;;;;;;;5039260;28;20029;-79
2024/01/06 11:20:06;;;;;;;3.30;1.67;;;;;;;;;;5036711;28;20036;-79
2024/01/06 11:22:33;;;;;;;4.45;2.28;;;;;;;;;;5047673;28;20024;-79
2024/01/06 11:25:07;;;;;;;4.57;2.70;;;;;;;;;;5046590;28;20025;-75
2024/01/06 11:27:33;;;;;;;2.80;1.70;;;;;;;;;;5059013;28;20051;-75
2024/01/06 11:30:00;;;;;;;3.85;1.70;;;;;;;;;;5055287;28;20044;-75
2024/01/06 11:32:26;;;;;;;3.70;1.40;;;;;;;;;;5035555;28;20025;-75
2024/01/06 11:34:53;;;;;;;2.42;1.30;;;;;;;;;;5040951;28;20508;-77
2024/01/06 11:37:36;;;;;;;2.05;1.23;;;;;;;;;;5040623;28;20021;-75
2024/01/06 11:40:02;;;;;;;;;;;;;;;;;;5026969;28;20025;-74
2024/01/06 11:42:35;;;;;;;2.00;1.30;;;;;;;;;;5043503;28;19908;-75
2024/01/06 11:45:05;;;;;;;3.45;1.38;;;;;;;;;;5047114;28;20037;-75
2024/01/06 11:47:33;;;;;;;5.72;2.15;;;;;;;;;;5033473;28;20468;-75
2024/01/06 11:50:00;;;;;;;2.72;1.80;;;;;;;;;;5032570;28;20029;-74
2024/01/06 11:52:27;;;;;;;3.15;1.77;;;;;;;;;;5041074;28;20558;-76
2024/01/06 11:54:54;;;;;;;1.70;1.30;;;;;;;;;;5032787;28;20029;-77
2024/01/06 11:57:21;;;;;;;2.08;1.52;;;;;;;;;;5032410;28;20025;-77
2024/01/06 11:59:49;;;;;;;4.60;1.90;;;;;;;;;;5032026;28;20030;-77
2024/01/06 12:02:18;;;;;;;6.03;2.35;;;;;;;;;;5045857;28;20021;-75
2024/01/06 12:04:49;;;;;;;5.90;2.42;;;;;;;;;;5049818;28;20026;-75
2024/01/06 12:07:16;;;;;;;4.90;1.95;;;;;;;;;;5035949;28;20013;-77
2024/01/06 12:09:42;;;;;;;6.97;2.22;;;;;;;;;;5031689;28;20029;-75
2024/01/06 12:12:14;;;;;;;6.68;2.30;;;;;;;;;;5032424;28;20025;-75
2024/01/06 12:14:45;;;;;;;5.35;2.33;;;;;;;;;;5032685;28;20032;-74
2024/01/06 12:17:13;;;;;;;5.10;2.65;;;;;;;;;;5046739;28;20048;-75
2024/01/06 12:19:39;;;;;;;7.43;3.08;;;;;;;;;;5040206;28;20033;-75
2024/01/06 12:22:06;;;;;;;7.63;3.17;;;;;;;;;;5031099;28;20029;-76
2024/01/06 12:24:32;;;;;;;7.07;2.75;;;;;;;;;;5043621;28;20045;-75
2024/01/06 12:26:59;;;;;;;5.90;3.05;;;;;;;;;;5051984;28;20025;-74
2024/01/06 12:29:29;;;;;;;10.10;3.10;;;;;;;;;;5053549;28;20475;-77
2024/01/06 12:31:56;;;;;;;6.18;3.25;;;;;;;;;;5039435;28;20079;-75
2024/01/06 12:34:22;;;;;;;6.47;3.17;;;;;;;;;;5053069;28;20024;-76
2024/01/06 12:36:52;;;;;;;5.53;3.40;;;;;;;;;;5023002;28;20129;-76
2024/01/06 12:39:19;;;;;;;6.05;3.00;;;;;;;;;;5032272;28;20025;-74
2024/01/06 12:41:45;;;;;;;6.43;3.40;;;;;;;;;;5035352;28;20510;-75
2024/01/06 12:44:12;;;;;;;6.88;3.78;;;;;;;;;;5047116;28;20411;-75
2024/01/06 12:46:41;;;;;;;7.03;2.85;;;;;;;;;;5042850;28;20104;-73
2024/01/06 12:49:08;;;;;;;6.40;3.30;;;;;;;;;;5041500;28;20520;-73
2024/01/06 12:51:34;;;;;;;3.83;2.40;;;;;;;;;;5053462;28;20028;-74
2024/01/06 12:54:01;;;;;;;5.35;2.90;;;;;;;;;;5038927;28;20483;-75
2024/01/06 12:56:27;;;;;;;4.05;2.60;;;;;;;;;;5053259;28;20116;-74
2024/01/06 12:58:53;;;;;;;6.30;3.10;;;;;;;;;;5053513;28;20067;-74
2024/01/06 13:01:19;;;;;;;7.28;3.10;;;;;;;;;;5046661;28;20094;-74
2024/01/06 13:03:46;;;;;;;4.78;3.03;;;;;;;;;;5042172;28;20120;-73
2024/01/06 13:06:12;;;;;;;4.53;2.80;;;;;;;;;;5033817;28;20084;-76
2024/01/06 13:08:39;;;;;;;4.20;2.60;;;;;;;;;;5028187;28;20048;-75
2024/01/06 13:11:06;;;;;;;4.20;2.55;;;;;;;;;;5037905;28;20026;-76
2024/01/06 13:13:32;;;;;;;5.63;2.53;;;;;;;;;;5042358;28;20017;-76
2024/01/06 13:15:58;;;;;;;3.65;2.28;;;;;;;;;;5046917;28;20124;-76
2024/01/06 13:18:24;;;;;;;5.18;2.15;;;;;;;;;;5043840;28;20388;-76
2024/01/06 13:20:51;;;;;;;3.30;2.33;;;;;;;;;;5054768;28;20048;-75
2024/01/06 13:23:17;;;;;;;2.30;2.05;;;;;;;;;;5039019;28;20021;-76
2024/01/06 13:25:44;;;;;;;3.00;1.80;;;;;;;;;;5034715;28;20029;-74
2024/01/06 13:28:10;;;;;;;4.30;2.47;;;;;;;;;;5035388;28;20615;-74
2024/01/06 13:30:36;;;;;;;4.15;2.40;;;;;;;;;;5044803;28;20013;-74
2024/01/06 13:33:02;;;;;;;5.78;2.90;;;;;;;;;;5047095;28;20029;-75
2024/01/06 13:35:30;;;;;;;8.38;2.90;;;;;;;;;;5040124;28;20025;-75
2024/01/06 13:37:56;;;;;;;6.25;2.40;;;;;;;;;;5039522;28;20427;-75
2024/01/06 13:40:23;;;;;;;5.20;2.83;;;;;;;;;;5044760;28;20031;-75
2024/01/06 13:42:50;;;;;;;4.80;2.17;;;;;;;;;;5046673;28;20025;-75
2024/01/06 13:45:17;;;;;;;4.35;2.97;;;;;;;;;;5047418;28;20030;-74
2024/01/06 13:47:46;;;;;;;6.47;2.83;;;;;;;;;;5046512;28;20029;-75
2024/01/06 13:50:12;;;;;;;7.28;2.42;;;;;;;;;;5050919;28;20421;-75
2024/01/06 13:52:39;;;;;;;7.30;2.58;;;;;;;;;;5052484;28;20032;-75
2024/01/06 13:55:06;;;;;;;3.97;2.17;;;;;;;;;;5043739;28;20036;-74
2024/01/06 13:57:32;;;;;;;8.13;3.30;;;;;;;;;;5047511;28;20049;-74
2024/01/06 13:59:58;;;;;;;7.30;3.10;;;;;;;;;;5047428;28;20033;-75
2024/01/06 14:02:25;;;;;;;5.65;3.15;;;;;;;;;;5046081;28;20080;-74
2024/01/06 14:04:51;;;;;;;3.55;2.67;;;;;;;;;;5033377;28;20021;-75
2024/01/06 14:07:22;;;;;;;4.47;2.70;;;;;;;;;;5043837;28;20416;-75
2024/01/06 14:09:48;;;;;;;4.97;3.15;;;;;;;;;;5043431;28;20017;-75
2024/01/06 14:12:14;;;;;;;2.58;2.28;;;;;;;;;;5042503;28;20025;-75
2024/01/06 14:14:41;;;;;;;5.80;2.63;;;;;;;;;;5041790;28;20507;-74
2024/01/06 14:17:08;;;;;;;4.93;2.47;;;;;;;;;;5039776;28;20026;-75
2024/01/06 14:19:34;;;;;;;9.55;3.05;;;;;;;;;;5055172;28;20025;-74
2024/01/06 14:22:00;;;;;;;5.05;2.50;;;;;;;;;;5041525;28;20044;-76
2024/01/06 14:24:26;;;;;;;4.10;2.00;;;;;;;;;;5035303;28;20017;-75
2024/01/06 14:26:55;;;;;;;3.17;2.00;;;;;;;;;;5054726;28;20017;-74
2024/01/06 14:29:21;;;;;;;5.68;2.88;;;;;;;;;;5038493;28;20035;-75
2024/01/06 14:31:48;;;;;;;3.95;2.55;;;;;;;;;;5044638;28;20036;-74
2024/01/06 14:34:14;;;;;;;5.88;3.08;;;;;;;;;;5048436;28;20021;-75
2024/01/06 14:36:47;;;;;;;3.83;2.45;;;;;;;;;;5052300;28;20024;-75
2024/01/06 14:39:16;;;;;;;3.50;2.58;;;;;;;;;;5022210;28;20026;-75
2024/01/06 14:41:42;;;;;;;4.47;2.78;;;;;;;;;;5025724;28;20071;-75